Time;durP1;ratioP1;P1;durP2;ratioP2;P2;SDS_P1;SDS_P2;PMS_P1;PMS_P2;Temp;Humidity;BMP_temperature;BMP_pressure;BME280_temperature;BME280_humidity;BME280_pressure;Samples;Min_cycle;Max_cycle;Signal;HPM_P1;HPM_P2
2021/04/04 00:01:39;;;;;;;15.38;2.90;;;6.50;94.00;;;;;;5090345;28;20039;-67
2021/04/04 00:04:05;;;;;;;17.35;2.50;;;6.50;93.90;;;;;;5091248;28;20072;-68
2021/04/04 00:06:30;;;;;;;18.55;3.13;;;6.50;94.10;;;;;;5088612;28;20105;-67
2021/04/04 00:08:56;;;;;;;15.00;2.25;;;6.50;94.20;;;;;;5091252;28;20040;-68
2021/04/04 00:11:22;;;;;;;19.98;3.30;;;6.50;94.20;;;;;;5089567;28;20056;-68
2021/04/04 00:13:48;;;;;;;13.98;2.10;;;6.50;94.30;;;;;;5088595;28;20043;-68
2021/04/04 00:16:14;;;;;;;16.95;2.83;;;6.50;94.30;;;;;;5091366;28;20044;-68
2021/04/04 00:18:43;;;;;;;12.23;2.63;;;6.50;94.60;;;;;;5089295;28;20157;-68
2021/04/04 00:21:09;;;;;;;16.13;2.65;;;6.50;94.50;;;;;;5087725;28;20039;-68
2021/04/04 00:23:36;;;;;;;21.33;2.80;;;6.50;94.50;;;;;;5088985;28;20085;-68
2021/04/04 00:26:03;;;;;;;13.68;2.40;;;6.60;94.60;;;;;;5087730;28;20039;-68
2021/04/04 00:28:28;;;;;;;17.88;2.83;;;6.60;94.40;;;;;;5090078;28;20437;-68
2021/04/04 00:30:54;;;;;;;17.65;3.08;;;6.60;94.40;;;;;;5091125;28;20397;-68
2021/04/04 00:33:20;;;;;;;17.52;2.42;;;6.60;94.60;;;;;;5086563;28;20504;-68
2021/04/04 00:35:47;;;;;;;15.57;2.70;;;6.60;94.40;;;;;;5090964;28;20086;-67
2021/04/04 00:38:13;;;;;;;17.98;2.67;;;6.60;94.60;;;;;;5089422;28;20043;-68
2021/04/04 00:40:39;;;;;;;21.40;3.33;;;6.50;94.70;;;;;;5090221;28;20531;-68
2021/04/04 00:43:06;;;;;;;18.38;2.72;;;6.60;94.80;;;;;;5090116;28;20111;-66
2021/04/04 00:45:35;;;;;;;18.63;3.22;;;6.50;94.90;;;;;;5091061;28;20492;-67
2021/04/04 00:48:01;;;;;;;22.15;2.85;;;6.50;95.00;;;;;;5088739;28;20032;-67
2021/04/04 00:50:29;;;;;;;20.55;3.15;;;6.50;95.30;;;;;;5090804;28;20036;-67
2021/04/04 00:52:58;;;;;;;16.50;3.55;;;6.50;95.20;;;;;;5089765;28;20135;-66
2021/04/04 00:55:24;;;;;;;16.05;2.50;;;6.50;95.00;;;;;;5091529;28;20043;-67
2021/04/04 00:57:51;;;;;;;19.20;3.38;;;6.40;95.30;;;;;;5091784;28;20036;-67
2021/04/04 01:00:21;;;;;;;20.77;3.60;;;6.50;95.30;;;;;;5089128;28;20046;-67
2021/04/04 01:02:49;;;;;;;19.65;2.28;;;6.50;95.30;;;;;;5087939;28;20075;-68
2021/04/04 01:05:17;;;;;;;13.77;2.20;;;6.50;95.10;;;;;;5090221;28;20040;-68
2021/04/04 01:07:46;;;;;;;19.77;2.90;;;6.50;95.30;;;;;;5086770;28;20039;-68
2021/04/04 01:10:13;;;;;;;13.20;2.22;;;6.50;95.20;;;;;;5091179;28;20036;-67
2021/04/04 01:13:05;;;;;;;23.40;3.00;;;6.50;95.10;;;;;;5086453;28;20043;-67
2021/04/04 01:16:17;;;;;;;17.10;2.42;;;6.50;95.30;;;;;;5083819;28;20044;-68
2021/04/04 01:19:09;;;;;;;21.02;2.30;;;6.40;95.10;;;;;;5059726;28;20063;-68
2021/04/04 01:21:42;;;;;;;17.85;3.28;;;6.50;95.40;;;;;;5079126;28;20052;-67
2021/04/04 01:24:29;;;;;;;16.73;2.78;;;6.50;95.20;;;;;;5115405;27;20093;-67
2021/04/04 01:27:02;;;;;;;13.70;2.15;;;6.40;95.10;;;;;;5089935;28;20059;-67
2021/04/04 01:29:28;;;;;;;12.13;1.75;;;6.40;95.20;;;;;;5090101;28;20044;-66
2021/04/04 01:31:55;;;;;;;15.15;2.28;;;6.40;95.40;;;;;;5089688;28;20040;-68
2021/04/04 01:34:24;;;;;;;15.25;2.28;;;6.40;95.20;;;;;;5091883;28;20462;-68
2021/04/04 01:36:53;;;;;;;16.00;1.95;;;6.40;95.30;;;;;;5089321;28;20039;-68
2021/04/04 01:39:21;;;;;;;11.07;2.10;;;6.50;95.20;;;;;;5085068;28;20024;-66
2021/04/04 01:41:49;;;;;;;15.82;2.47;;;6.50;95.30;;;;;;5087422;28;20039;-65
2021/04/04 01:44:17;;;;;;;10.77;2.20;;;6.50;95.10;;;;;;5089373;28;20046;-68
2021/04/04 01:46:46;;;;;;;11.85;2.40;;;6.40;94.80;;;;;;5090795;28;20036;-67
2021/04/04 01:49:13;;;;;;;10.77;2.17;;;6.40;94.90;;;;;;5090337;28;20028;-67
2021/04/04 01:51:40;;;;;;;18.30;1.90;;;6.50;95.10;;;;;;5085804;28;20412;-67
2021/04/04 01:54:07;;;;;;;11.77;2.20;;;6.50;95.00;;;;;;5090836;28;20032;-68
2021/04/04 01:56:33;;;;;;;13.77;2.00;;;6.50;95.00;;;;;;5089249;28;20044;-68
2021/04/04 01:59:00;;;;;;;16.50;2.67;;;6.40;95.40;;;;;;5089805;28;20043;-67
2021/04/04 02:01:28;;;;;;;19.42;2.05;;;6.40;95.30;;;;;;5086633;28;20032;-67
2021/04/04 02:03:59;;;;;;;13.68;1.77;;;6.40;95.30;;;;;;5089017;28;20113;-67
2021/04/04 02:06:25;;;;;;;11.40;2.33;;;6.40;95.50;;;;;;5088499;28;20115;-68
2021/04/04 02:08:53;;;;;;;12.35;2.83;;;6.30;95.60;;;;;;5088759;28;20040;-67
2021/04/04 02:11:21;;;;;;;12.57;2.00;;;6.40;95.50;;;;;;5086710;28;20044;-68
2021/04/04 02:13:49;;;;;;;12.45;2.20;;;6.40;95.30;;;;;;5089528;28;20032;-68
2021/04/04 02:16:16;;;;;;;12.02;2.30;;;6.40;95.40;;;;;;5089189;28;20040;-67
2021/04/04 02:18:46;;;;;;;14.20;2.85;;;6.40;95.50;;;;;;5087942;28;20036;-68
2021/04/04 02:21:13;;;;;;;19.65;2.30;;;6.40;95.40;;;;;;5088817;28;20066;-67
2021/04/04 02:23:39;;;;;;;15.38;1.92;;;6.40;95.70;;;;;;5088351;28;20131;-68
2021/04/04 02:26:05;;;;;;;15.55;1.85;;;6.40;95.60;;;;;;5088467;28;20075;-68
2021/04/04 02:28:31;;;;;;;15.90;2.10;;;6.30;95.60;;;;;;5086701;28;20056;-67
2021/04/04 02:30:58;;;;;;;10.98;1.42;;;6.30;95.50;;;;;;5085015;28;20043;-68
2021/04/04 02:33:31;;;;;;;11.85;1.85;;;6.30;95.60;;;;;;5086332;28;20052;-68
2021/04/04 02:36:03;;;;;;;13.77;2.10;;;6.30;95.70;;;;;;5086225;28;20042;-67
2021/04/04 02:38:32;;;;;;;11.05;1.80;;;6.30;95.60;;;;;;5086471;28;20040;-67
2021/04/04 02:41:01;;;;;;;17.23;3.03;;;6.30;95.50;;;;;;5083669;28;20040;-68
2021/04/04 02:43:29;;;;;;;13.90;2.05;;;6.30;95.80;;;;;;5086658;28;20055;-69
2021/04/04 02:45:56;;;;;;;16.67;1.83;;;6.30;95.60;;;;;;5086273;28;20036;-68
2021/04/04 02:48:29;;;;;;;16.33;2.33;;;6.30;96.00;;;;;;5087775;28;20040;-67
2021/04/04 02:50:58;;;;;;;17.55;2.30;;;6.30;96.00;;;;;;5086222;28;20193;-68
2021/04/04 02:53:26;;;;;;;16.30;2.00;;;6.30;96.00;;;;;;5087705;28;20085;-67
2021/04/04 02:55:54;;;;;;;17.17;2.80;;;6.30;95.80;;;;;;5088600;28;20032;-68
2021/04/04 02:58:20;;;;;;;14.52;1.52;;;6.30;95.70;;;;;;5092674;28;20032;-68
2021/04/04 03:00:47;;;;;;;13.82;2.17;;;6.30;95.80;;;;;;5087228;28;20139;-67
2021/04/04 03:03:17;;;;;;;16.00;2.10;;;6.30;96.10;;;;;;5087944;28;20047;-67
2021/04/04 03:05:44;;;;;;;10.00;1.70;;;6.30;96.20;;;;;;5091686;28;20032;-68
2021/04/04 03:08:11;;;;;;;11.15;1.67;;;6.30;96.10;;;;;;5091317;28;20460;-67
2021/04/04 03:10:37;;;;;;;10.18;1.00;;;6.30;95.90;;;;;;5074223;28;20056;-67
2021/04/04 03:13:03;;;;;;;14.50;2.25;;;6.40;96.00;;;;;;5090234;28;20047;-68
2021/04/04 03:15:30;;;;;;;9.00;1.20;;;6.30;96.20;;;;;;5091845;28;20036;-68
2021/04/04 03:17:58;;;;;;;12.90;2.13;;;6.30;96.20;;;;;;5091965;28;20067;-68
2021/04/04 03:20:26;;;;;;;13.65;1.90;;;6.40;96.30;;;;;;5092394;28;20046;-68
2021/04/04 03:22:53;;;;;;;10.90;1.17;;;6.30;96.60;;;;;;5091736;28;20081;-68
2021/04/04 03:25:19;;;;;;;12.90;1.70;;;6.30;96.40;;;;;;5091835;28;20048;-67
2021/04/04 03:27:47;;;;;;;13.73;1.88;;;6.30;96.40;;;;;;5091412;28;20071;-67
2021/04/04 03:33:03;;;;;;;11.30;2.05;;;6.30;96.30;;;;;;5089367;28;20044;-68
2021/04/04 03:35:31;;;;;;;7.60;1.40;;;6.30;96.60;;;;;;5090764;28;20129;-67
2021/04/04 03:37:58;;;;;;;14.30;1.67;;;6.30;96.50;;;;;;5092214;28;20122;-67
2021/04/04 03:40:25;;;;;;;13.32;1.65;;;6.30;96.30;;;;;;5093403;28;20038;-68
2021/04/04 03:42:51;;;;;;;11.02;1.52;;;6.30;96.60;;;;;;5089295;28;20429;-68
2021/04/04 03:45:18;;;;;;;15.80;1.55;;;6.30;96.50;;;;;;5092478;28;20028;-67
2021/04/04 03:47:46;;;;;;;17.02;1.83;;;6.30;96.70;;;;;;5091496;28;20401;-68
2021/04/04 03:50:12;;;;;;;14.88;2.03;;;6.30;96.60;;;;;;5092590;28;20048;-68
2021/04/04 03:52:39;;;;;;;12.18;1.55;;;6.20;96.80;;;;;;5089163;28;20477;-67
2021/04/04 03:55:08;;;;;;;11.38;2.38;;;6.20;96.90;;;;;;5090151;28;20541;-68
2021/04/04 03:57:37;;;;;;;18.45;3.10;;;6.20;96.60;;;;;;5089258;28;20044;-68
2021/04/04 04:00:07;;;;;;;12.82;1.70;;;6.20;96.70;;;;;;5090758;28;20036;-68
2021/04/04 04:02:35;;;;;;;10.82;2.03;;;6.20;96.70;;;;;;5087946;28;20135;-67
2021/04/04 04:05:02;;;;;;;14.15;2.00;;;6.20;96.60;;;;;;5091980;28;20526;-67
2021/04/04 04:07:30;;;;;;;11.93;1.75;;;6.20;96.40;;;;;;5090824;28;20123;-68
2021/04/04 04:09:59;;;;;;;15.88;2.33;;;6.20;96.40;;;;;;5089940;28;20044;-68
2021/04/04 04:12:27;;;;;;;12.52;2.20;;;6.30;96.50;;;;;;5088141;28;20036;-66
2021/04/04 04:14:55;;;;;;;14.00;2.25;;;6.30;96.30;;;;;;5089691;28;20135;-66
2021/04/04 04:17:22;;;;;;;9.20;2.22;;;6.20;96.10;;;;;;5088647;28;20540;-67
2021/04/04 04:19:48;;;;;;;9.73;2.28;;;6.20;96.10;;;;;;5089986;28;20347;-67
2021/04/04 04:22:14;;;;;;;17.38;2.55;;;6.20;96.00;;;;;;5082277;28;20044;-68
2021/04/04 04:24:40;;;;;;;8.30;1.83;;;6.30;95.90;;;;;;5084366;28;20115;-67
2021/04/04 04:27:07;;;;;;;10.90;2.80;;;6.30;95.80;;;;;;5082928;28;20126;-67
2021/04/04 04:29:34;;;;;;;10.27;2.10;;;6.20;95.90;;;;;;5083466;28;20036;-68
2021/04/04 04:32:02;;;;;;;9.70;2.03;;;6.20;95.80;;;;;;5083017;28;20044;-68
2021/04/04 04:34:29;;;;;;;18.27;2.70;;;6.20;96.10;;;;;;5087505;28;20039;-68
2021/04/04 04:36:55;;;;;;;17.02;1.98;;;6.20;95.80;;;;;;5089500;28;20070;-68
2021/04/04 04:39:21;;;;;;;11.30;2.33;;;6.20;96.00;;;;;;5086403;28;20032;-68
2021/04/04 04:41:50;;;;;;;9.15;2.33;;;6.30;96.00;;;;;;5085285;28;20032;-68
2021/04/04 04:44:22;;;;;;;11.10;2.03;;;6.30;96.00;;;;;;5087589;28;20040;-68
2021/04/04 04:46:49;;;;;;;10.95;2.33;;;6.30;96.00;;;;;;5082072;28;20043;-68
2021/04/04 04:49:15;;;;;;;12.85;2.85;;;6.30;95.70;;;;;;5087935;28;20242;-68
2021/04/04 04:51:41;;;;;;;8.57;2.40;;;6.30;96.00;;;;;;5087384;28;20054;-68
2021/04/04 04:54:08;;;;;;;9.27;2.53;;;6.30;95.70;;;;;;5085515;28;20035;-68
2021/04/04 04:56:38;;;;;;;10.82;2.25;;;6.30;95.60;;;;;;5081121;28;20042;-68
2021/04/04 04:59:06;;;;;;;9.43;2.65;;;6.30;95.40;;;;;;5079757;28;20398;-68
2021/04/04 05:01:40;;;;;;;12.15;4.13;;;6.20;95.50;;;;;;5083002;28;20109;-68
2021/04/04 05:04:06;;;;;;;9.68;2.60;;;6.30;95.50;;;;;;5086369;28;20031;-68
2021/04/04 05:06:32;;;;;;;12.73;2.60;;;6.30;95.80;;;;;;5087294;28;20409;-68
2021/04/04 05:08:59;;;;;;;16.15;2.42;;;6.30;95.80;;;;;;5086005;28;20501;-68
2021/04/04 05:11:26;;;;;;;14.85;3.65;;;6.40;95.80;;;;;;5087667;28;20115;-68
2021/04/04 05:13:53;;;;;;;15.80;4.47;;;6.40;95.70;;;;;;5088071;28;20058;-68
2021/04/04 05:16:19;;;;;;;10.15;2.45;;;6.40;95.60;;;;;;5086628;28;20414;-68
2021/04/04 05:18:46;;;;;;;15.10;2.85;;;6.40;95.70;;;;;;5087784;28;20047;-68
2021/04/04 05:21:12;;;;;;;12.10;3.20;;;6.40;96.10;;;;;;5087785;28;20051;-68
2021/04/04 05:23:38;;;;;;;9.60;2.47;;;6.30;96.10;;;;;;5086513;28;20100;-68
2021/04/04 05:26:04;;;;;;;9.02;2.22;;;6.30;96.00;;;;;;5086931;28;20028;-68
2021/04/04 05:28:32;;;;;;;14.02;3.58;;;6.30;96.80;;;;;;5084500;28;20047;-68
2021/04/04 05:31:02;;;;;;;11.73;3.17;;;6.40;96.20;;;;;;5086610;28;20044;-67
2021/04/04 05:33:30;;;;;;;14.52;3.55;;;6.30;96.10;;;;;;5086163;28;20090;-68
2021/04/04 05:36:01;;;;;;;13.48;3.90;;;6.30;96.10;;;;;;5088006;28;20040;-68
2021/04/04 05:38:27;;;;;;;14.88;4.55;;;6.30;95.60;;;;;;5085835;28;20059;-68
2021/04/04 05:40:56;;;;;;;11.00;3.95;;;6.30;95.30;;;;;;5086399;28;20405;-68
2021/04/04 05:43:25;;;;;;;10.57;4.32;;;6.30;95.10;;;;;;5079291;28;20044;-68
2021/04/04 05:46:19;;;;;;;17.30;4.88;;;6.30;95.40;;;;;;5087901;28;20035;-68
2021/04/04 05:49:18;;;;;;;11.45;4.20;;;6.30;95.60;;;;;;5082576;28;20040;-68
2021/04/04 05:51:46;;;;;;;16.27;5.57;;;6.40;95.30;;;;;;5086694;28;20071;-68
2021/04/04 05:54:33;;;;;;;18.48;6.13;;;6.30;95.00;;;;;;5082640;28;20048;-68
2021/04/04 05:57:04;;;;;;;13.20;4.68;;;6.30;95.20;;;;;;5084126;28;20048;-68
2021/04/04 05:59:35;;;;;;;14.80;6.53;;;6.30;95.20;;;;;;5087087;28;20035;-68
2021/04/04 06:02:03;;;;;;;18.35;6.07;;;6.30;95.10;;;;;;5080069;28;20040;-68
2021/04/04 06:04:50;;;;;;;18.02;7.50;;;6.30;95.00;;;;;;5086742;28;20036;-68
2021/04/04 06:07:52;;;;;;;14.13;6.38;;;6.30;94.70;;;;;;5087116;28;20051;-68
2021/04/04 06:10:39;;;;;;;15.02;6.32;;;6.30;94.80;;;;;;5085876;28;20067;-68
2021/04/04 06:13:46;;;;;;;;;;;6.30;95.00;;;;;;5085336;28;20059;-68
2021/04/04 06:16:11;;;;;;;18.85;6.43;;;6.40;94.80;;;;;;5087066;28;19927;-68
2021/04/04 06:18:59;;;;;;;15.07;6.47;;;6.40;94.70;;;;;;5086389;28;20028;-68
2021/04/04 06:21:37;;;;;;;16.38;6.28;;;6.40;94.60;;;;;;5086693;28;20433;-68
2021/04/04 06:24:10;;;;;;;16.40;6.65;;;6.30;94.60;;;;;;5084531;28;20427;-68
2021/04/04 06:26:47;;;;;;;16.17;7.88;;;6.40;94.80;;;;;;5085986;28;20048;-68
2021/04/04 06:29:23;;;;;;;19.40;7.90;;;6.40;94.90;;;;;;5085431;28;20389;-68
2021/04/04 06:31:54;;;;;;;;;;;6.40;94.90;;;;;;5088374;28;20469;-68
2021/04/04 06:34:36;;;;;;;16.85;6.60;;;6.40;94.10;;;;;;5091159;28;20400;-68
2021/04/04 06:37:24;;;;;;;17.58;6.32;;;6.40;94.10;;;;;;5086486;28;20116;-68
2021/04/04 06:40:08;;;;;;;18.52;6.93;;;6.40;94.10;;;;;;5091088;28;20096;-68
2021/04/04 06:43:10;;;;;;;17.02;6.70;;;6.40;94.60;;;;;;5089214;28;20044;-68
2021/04/04 06:46:18;;;;;;;15.05;6.10;;;6.40;94.20;;;;;;5088186;28;20043;-68
2021/04/04 06:49:13;;;;;;;14.63;6.53;;;6.40;93.90;;;;;;5083313;28;20048;-68
2021/04/04 06:52:09;;;;;;;19.27;6.68;;;6.40;94.20;;;;;;5089576;28;20075;-68
2021/04/04 06:54:58;;;;;;;16.67;7.07;;;6.40;94.20;;;;;;5091901;28;20044;-68
2021/04/04 06:57:52;;;;;;;18.75;6.97;;;6.50;94.40;;;;;;5090996;28;20038;-68
2021/04/04 07:00:42;;;;;;;14.43;6.22;;;6.50;94.50;;;;;;5088559;28;20059;-68
2021/04/04 07:03:08;;;;;;;15.15;6.50;;;6.50;94.70;;;;;;5090228;28;20093;-68
2021/04/04 07:05:42;;;;;;;16.50;6.57;;;6.50;94.40;;;;;;5089138;28;20101;-68
2021/04/04 07:08:42;;;;;;;13.15;6.18;;;6.60;94.10;;;;;;5090317;28;20039;-68
2021/04/04 07:11:22;;;;;;;15.32;6.95;;;6.60;94.00;;;;;;5088189;28;20047;-68
2021/04/04 07:14:00;;;;;;;16.05;6.78;;;6.60;93.80;;;;;;5089112;28;20462;-68
2021/04/04 07:17:01;;;;;;;15.05;6.88;;;6.60;94.20;;;;;;5088715;28;20123;-68
2021/04/04 07:19:50;;;;;;;15.90;6.65;;;6.60;94.40;;;;;;5090242;28;20044;-68
2021/04/04 07:22:25;;;;;;;18.80;7.47;;;6.70;94.40;;;;;;5087568;28;20243;-68
2021/04/04 07:25:26;;;;;;;15.20;7.20;;;6.70;94.10;;;;;;5089998;28;20044;-68
2021/04/04 07:27:52;;;;;;;16.50;6.68;;;6.70;94.30;;;;;;5088828;28;20040;-68
2021/04/04 07:30:30;;;;;;;17.60;6.65;;;6.70;94.30;;;;;;5088850;28;20551;-68
2021/04/04 07:33:16;;;;;;;14.80;7.53;;;6.70;94.20;;;;;;5089107;28;20126;-68
2021/04/04 07:35:51;;;;;;;;;;;6.70;93.80;;;;;;5049416;28;20452;-68
2021/04/04 07:38:29;;;;;;;17.70;6.90;;;6.70;94.30;;;;;;5086531;28;19939;-68
2021/04/04 07:41:02;;;;;;;14.18;6.68;;;6.70;94.40;;;;;;5089844;28;20043;-68
2021/04/04 07:43:36;;;;;;;17.52;5.95;;;6.70;94.30;;;;;;5089002;28;20442;-68
2021/04/04 07:46:12;;;;;;;15.77;6.57;;;6.70;94.40;;;;;;5091134;28;20062;-68
2021/04/04 07:48:52;;;;;;;15.18;5.97;;;6.80;94.20;;;;;;5089427;28;20590;-68
2021/04/04 07:51:23;;;;;;;13.48;6.30;;;6.80;94.00;;;;;;5089859;28;20093;-68
2021/04/04 07:54:17;;;;;;;16.38;6.70;;;6.80;94.50;;;;;;5088762;28;20046;-68
2021/04/04 07:56:55;;;;;;;11.80;6.47;;;6.90;94.10;;;;;;5088371;28;20032;-68
2021/04/04 07:59:45;;;;;;;15.18;7.25;;;6.90;94.40;;;;;;5089041;28;20441;-68
2021/04/04 08:02:19;;;;;;;21.95;7.18;;;6.90;94.30;;;;;;5088897;28;20123;-68
2021/04/04 08:04:57;;;;;;;13.75;6.97;;;6.90;94.40;;;;;;5088964;28;20074;-68
2021/04/04 08:07:51;;;;;;;16.50;7.60;;;6.90;94.10;;;;;;5088422;28;20044;-68
2021/04/04 08:10:55;;;;;;;14.30;6.47;;;7.00;94.40;;;;;;5088442;28;20059;-69
2021/04/04 08:13:43;;;;;;;21.20;8.25;;;7.00;94.20;;;;;;5086851;28;20044;-68
2021/04/04 08:16:28;;;;;;;16.88;8.32;;;7.00;94.20;;;;;;5089903;28;20044;-68
2021/04/04 08:18:54;;;;;;;14.68;7.43;;;7.10;94.30;;;;;;5089299;28;20450;-68
2021/04/04 08:21:25;;;;;;;14.57;6.97;;;7.10;94.00;;;;;;5088082;28;21914;-68
2021/04/04 08:23:56;;;;;;;16.58;8.00;;;7.20;94.40;;;;;;5088542;28;20036;-68
2021/04/04 08:26:32;;;;;;;19.15;8.43;;;7.20;94.20;;;;;;5089037;28;20032;-68
2021/04/04 08:29:15;;;;;;;18.02;8.48;;;7.30;94.30;;;;;;5088440;28;20040;-68
2021/04/04 08:31:48;;;;;;;16.92;7.85;;;7.30;94.30;;;;;;5088633;28;20044;-68
2021/04/04 08:34:23;;;;;;;20.30;9.27;;;7.40;93.40;;;;;;5088483;28;20043;-68
2021/04/04 08:36:57;;;;;;;19.15;8.80;;;7.40;93.70;;;;;;5087993;28;20082;-68
2021/04/04 08:39:26;;;;;;;14.70;8.20;;;7.40;93.60;;;;;;5086744;28;20028;-68
2021/04/04 08:41:54;;;;;;;18.98;7.78;;;7.50;93.50;;;;;;5087979;28;20055;-68
2021/04/04 08:44:31;;;;;;;21.20;8.50;;;7.50;93.40;;;;;;5082277;28;20074;-68
2021/04/04 08:47:08;;;;;;;16.23;8.35;;;7.50;93.20;;;;;;5088514;28;20123;-69
2021/04/04 08:49:36;;;;;;;20.85;8.48;;;7.60;93.80;;;;;;5089101;28;20040;-68
2021/04/04 08:52:29;;;;;;;16.75;7.60;;;7.60;93.50;;;;;;5068764;28;20093;-68
2021/04/04 08:54:55;;;;;;;21.95;7.72;;;7.70;93.20;;;;;;5088135;28;20517;-68
2021/04/04 08:57:36;;;;;;;18.52;7.53;;;7.70;93.50;;;;;;5087556;28;20047;-68
2021/04/04 09:00:11;;;;;;;15.32;8.05;;;7.80;93.40;;;;;;5088073;28;20036;-68
2021/04/04 09:02:58;;;;;;;13.45;7.43;;;7.80;93.20;;;;;;5086173;28;20115;-69
2021/04/04 09:05:25;;;;;;;27.77;8.77;;;7.90;93.50;;;;;;5086093;28;20063;-68
2021/04/04 09:07:54;;;;;;;18.55;8.73;;;7.90;92.80;;;;;;5087414;28;20164;-68
2021/04/04 09:10:22;;;;;;;26.80;9.00;;;7.90;93.00;;;;;;5089373;28;20048;-68
2021/04/04 09:12:48;;;;;;;21.90;9.20;;;8.00;93.00;;;;;;5087720;28;20032;-68
2021/04/04 09:15:14;;;;;;;17.65;7.93;;;8.00;93.20;;;;;;5081852;28;20036;-68
2021/04/04 09:17:54;;;;;;;15.88;8.68;;;8.00;93.10;;;;;;5088146;28;20044;-68
2021/04/04 09:20:32;;;;;;;18.23;8.60;;;8.10;92.70;;;;;;5088786;28;20086;-68
2021/04/04 09:23:00;;;;;;;18.33;7.72;;;8.00;93.10;;;;;;5087594;28;20051;-68
2021/04/04 09:25:28;;;;;;;15.68;7.60;;;8.10;93.00;;;;;;5087247;28;20044;-68
2021/04/04 09:27:57;;;;;;;15.05;7.63;;;8.20;93.20;;;;;;5086890;28;20036;-68
2021/04/04 09:30:33;;;;;;;19.10;7.25;;;8.20;92.90;;;;;;5088317;28;20286;-68
2021/04/04 09:33:02;;;;;;;16.60;7.10;;;8.20;92.80;;;;;;5085748;28;20398;-68
2021/04/04 09:35:28;;;;;;;15.88;7.57;;;8.20;92.90;;;;;;5088267;28;20674;-68
2021/04/04 09:38:07;;;;;;;11.95;6.05;;;8.30;92.50;;;;;;5087290;28;20089;-68
2021/04/04 09:40:34;;;;;;;11.75;5.60;;;8.30;92.60;;;;;;5088569;28;20437;-68
2021/04/04 09:43:07;;;;;;;14.38;6.15;;;8.40;92.70;;;;;;5086496;28;20048;-68
2021/04/04 09:45:33;;;;;;;19.55;5.25;;;8.30;92.50;;;;;;5086733;28;21611;-68
2021/04/04 09:48:18;;;;;;;19.27;5.45;;;8.30;92.50;;;;;;5088012;28;20445;-68
2021/04/04 09:50:44;;;;;;;10.07;3.85;;;8.30;92.40;;;;;;5087374;28;20385;-68
2021/04/04 09:53:10;;;;;;;11.48;3.20;;;8.30;92.50;;;;;;5082128;28;20541;-68
2021/04/04 09:55:36;;;;;;;13.05;3.53;;;8.40;92.70;;;;;;5083831;28;20104;-68
2021/04/04 09:58:03;;;;;;;11.25;4.00;;;8.40;92.60;;;;;;5083605;28;20028;-68
2021/04/04 10:00:43;;;;;;;13.00;4.63;;;8.40;92.60;;;;;;5086781;28;20455;-68
2021/04/04 10:03:13;;;;;;;12.60;3.03;;;8.50;92.40;;;;;;5085509;28;20040;-68
2021/04/04 10:05:47;;;;;;;12.27;3.00;;;8.60;92.60;;;;;;5088105;28;20040;-68
2021/04/04 10:08:17;;;;;;;13.25;2.70;;;8.50;92.20;;;;;;5087118;28;20044;-68
2021/04/04 10:10:57;;;;;;;11.55;3.70;;;8.50;92.10;;;;;;5088510;28;20474;-68
2021/04/04 10:13:25;;;;;;;21.85;4.70;;;8.50;92.30;;;;;;5086556;28;20051;-68
2021/04/04 10:15:52;;;;;;;14.10;3.90;;;8.50;92.20;;;;;;5087315;28;20032;-68
2021/04/04 10:18:20;;;;;;;16.90;2.83;;;8.60;92.70;;;;;;5088070;28;20032;-68
2021/04/04 10:20:53;;;;;;;11.48;3.10;;;8.60;92.30;;;;;;5088619;28;20040;-68
2021/04/04 10:23:26;;;;;;;13.13;3.05;;;8.60;92.40;;;;;;5087333;28;20032;-68
2021/04/04 10:25:58;;;;;;;15.57;3.13;;;8.60;92.60;;;;;;5087889;28;20154;-68
2021/04/04 10:28:24;;;;;;;9.30;2.20;;;8.70;92.20;;;;;;5087362;28;20039;-68
2021/04/04 10:30:56;;;;;;;11.98;2.60;;;8.70;92.10;;;;;;5088167;28;20045;-68
2021/04/04 10:33:24;;;;;;;40.00;5.05;;;8.80;92.30;;;;;;5085369;28;20036;-68
2021/04/04 10:35:51;;;;;;;10.27;3.58;;;8.90;91.70;;;;;;5088562;28;20043;-68
2021/04/04 10:38:22;;;;;;;14.32;3.35;;;8.70;91.90;;;;;;5087797;28;20093;-68
2021/04/04 10:40:56;;;;;;;11.63;2.97;;;8.70;92.40;;;;;;5088609;28;20040;-68
2021/04/04 10:43:37;;;;;;;21.38;4.40;;;8.70;92.20;;;;;;5084330;28;20036;-68
2021/04/04 10:46:10;;;;;;;12.93;3.63;;;8.80;92.10;;;;;;5087052;28;20146;-68
2021/04/04 10:48:41;;;;;;;12.40;3.15;;;8.70;92.10;;;;;;5086741;28;20040;-68
2021/04/04 10:51:12;;;;;;;12.98;3.60;;;8.80;92.70;;;;;;5086748;28;20113;-68
2021/04/04 10:53:39;;;;;;;7.88;3.15;;;8.80;92.40;;;;;;5085454;28;20044;-68
2021/04/04 10:56:06;;;;;;;15.18;3.58;;;8.80;92.30;;;;;;5088377;28;20065;-68
2021/04/04 10:58:34;;;;;;;11.55;3.75;;;8.80;92.10;;;;;;5087566;28;20047;-68
2021/04/04 11:01:02;;;;;;;13.77;3.65;;;8.80;91.80;;;;;;5087326;28;20040;-68
2021/04/04 11:03:28;;;;;;;13.85;3.30;;;8.70;92.40;;;;;;5083950;28;20440;-68
2021/04/04 11:05:55;;;;;;;14.77;3.72;;;8.70;92.40;;;;;;5087710;28;20036;-68
2021/04/04 11:08:21;;;;;;;13.88;3.47;;;8.80;92.30;;;;;;5087211;28;20035;-68
2021/04/04 11:10:49;;;;;;;11.73;3.88;;;8.80;92.40;;;;;;5088142;28;20068;-68
2021/04/04 11:13:19;;;;;;;12.30;3.67;;;8.80;92.40;;;;;;5086416;28;20036;-68
2021/04/04 11:15:59;;;;;;;12.40;4.10;;;8.90;92.20;;;;;;5086359;28;20053;-68
2021/04/04 11:18:46;;;;;;;13.32;4.53;;;8.90;92.30;;;;;;5090552;28;20040;-68
2021/04/04 11:21:19;;;;;;;16.45;3.58;;;9.00;92.10;;;;;;5091682;28;20867;-68
2021/04/04 11:23:45;;;;;;;14.15;4.63;;;9.10;91.40;;;;;;5090677;28;20067;-68
2021/04/04 11:26:32;;;;;;;14.82;4.38;;;9.10;91.70;;;;;;5091728;28;20047;-68
2021/04/04 11:29:10;;;;;;;9.48;3.70;;;9.10;91.70;;;;;;5090600;28;20047;-68
2021/04/04 11:31:37;;;;;;;19.05;4.18;;;9.20;91.30;;;;;;5088990;28;20051;-68
2021/04/04 11:34:27;;;;;;;14.05;4.75;;;9.20;91.80;;;;;;5089253;28;20510;-69
2021/04/04 11:36:53;;;;;;;19.73;3.60;;;9.20;92.00;;;;;;5090948;28;20064;-69
2021/04/04 11:39:20;;;;;;;13.38;3.85;;;9.20;91.60;;;;;;5090199;28;20048;-69
2021/04/04 11:41:54;;;;;;;15.60;4.40;;;9.30;91.70;;;;;;5088928;28;20044;-69
2021/04/04 11:44:23;;;;;;;13.02;3.00;;;9.30;91.80;;;;;;5087317;28;20040;-68
2021/04/04 11:46:53;;;;;;;12.82;2.88;;;9.10;91.50;;;;;;5089813;28;20174;-69
2021/04/04 11:49:28;;;;;;;17.48;4.57;;;9.20;91.70;;;;;;5089795;28;20032;-69
2021/04/04 11:51:54;;;;;;;13.35;3.72;;;9.20;91.90;;;;;;5088933;28;20047;-68
2021/04/04 11:54:55;;;;;;;16.02;4.00;;;9.20;91.90;;;;;;5089688;28;20035;-68
2021/04/04 11:57:25;;;;;;;19.58;4.38;;;9.20;91.90;;;;;;5065077;28;20133;-68
2021/04/04 11:59:54;;;;;;;12.60;3.17;;;9.20;92.30;;;;;;5088870;28;20040;-68
2021/04/04 12:02:24;;;;;;;12.18;2.67;;;9.30;91.80;;;;;;5089418;28;20036;-68
2021/04/04 12:05:05;;;;;;;13.27;2.47;;;9.30;91.80;;;;;;5089841;28;20092;-68
2021/04/04 12:07:32;;;;;;;19.67;3.50;;;9.40;91.90;;;;;;5089865;28;20135;-68
2021/04/04 12:09:59;;;;;;;17.38;3.42;;;9.40;91.70;;;;;;5088258;28;20032;-68
2021/04/04 12:12:31;;;;;;;9.80;2.90;;;9.50;91.70;;;;;;5089821;28;20048;-68
2021/04/04 12:14:57;;;;;;;12.02;2.50;;;9.50;91.90;;;;;;5089235;28;20064;-68
2021/04/04 12:17:29;;;;;;;12.80;2.40;;;9.60;91.60;;;;;;5088329;28;20043;-68
2021/04/04 12:19:55;;;;;;;13.27;2.83;;;9.70;91.60;;;;;;5089401;28;20036;-69
2021/04/04 12:22:44;;;;;;;12.25;2.47;;;9.70;90.90;;;;;;5085912;28;20113;-69
2021/04/04 12:25:11;;;;;;;12.05;2.72;;;9.70;90.70;;;;;;5088127;28;20379;-68
2021/04/04 12:27:40;;;;;;;12.13;2.40;;;9.70;90.70;;;;;;5088501;28;20036;-68
2021/04/04 12:30:07;;;;;;;10.88;2.28;;;9.70;89.90;;;;;;5088856;28;20516;-68
2021/04/04 12:32:34;;;;;;;10.38;2.28;;;9.70;90.30;;;;;;5088714;28;20039;-69
2021/04/04 12:35:03;;;;;;;15.23;3.13;;;9.80;90.80;;;;;;5089425;28;20040;-68
2021/04/04 12:37:38;;;;;;;10.95;2.58;;;9.90;90.10;;;;;;5089349;28;20982;-68
2021/04/04 12:40:08;;;;;;;12.55;3.65;;;9.90;90.20;;;;;;5087282;28;20036;-68
2021/04/04 12:42:36;;;;;;;13.30;3.15;;;9.90;90.20;;;;;;5082953;28;20039;-69
2021/04/04 12:45:08;;;;;;;14.55;2.92;;;10.00;90.70;;;;;;5084875;28;20054;-69
2021/04/04 12:47:34;;;;;;;10.13;3.40;;;10.00;90.50;;;;;;5084017;28;20044;-69
2021/04/04 12:50:06;;;;;;;9.90;2.88;;;10.00;90.40;;;;;;5084474;28;20483;-69
2021/04/04 12:52:33;;;;;;;15.27;3.08;;;10.10;90.70;;;;;;5082522;28;20050;-69
2021/04/04 12:55:33;;;;;;;11.70;3.40;;;10.00;90.40;;;;;;5082144;28;20058;-69
2021/04/04 12:58:05;;;;;;;13.75;4.30;;;10.00;90.40;;;;;;5038818;28;20421;-69
2021/04/04 13:00:37;;;;;;;14.05;3.47;;;9.90;89.50;;;;;;5083519;28;20063;-68
2021/04/04 13:03:10;;;;;;;13.18;3.35;;;9.90;90.30;;;;;;5082175;28;20495;-69
2021/04/04 13:05:36;;;;;;;14.75;3.17;;;9.80;89.50;;;;;;5084287;28;20028;-69
2021/04/04 13:08:11;;;;;;;10.27;2.95;;;9.80;90.00;;;;;;5084089;28;20085;-69
2021/04/04 13:10:38;;;;;;;14.25;4.25;;;9.80;90.10;;;;;;5082760;28;20055;-69
2021/04/04 13:13:15;;;;;;;15.13;4.43;;;9.90;90.50;;;;;;5083531;28;20040;-69
2021/04/04 13:15:41;;;;;;;11.30;3.20;;;10.00;90.10;;;;;;5083412;28;20036;-69
2021/04/04 13:18:22;;;;;;;14.00;3.38;;;10.00;90.20;;;;;;5083337;28;20042;-69